createdAt,value
2023-04-09T00:01:42.065Z,97.30
2023-04-09T00:04:29.757Z,97.30
2023-04-09T00:07:17.433Z,97.20
2023-04-09T00:10:05.262Z,97.40
2023-04-09T00:12:54.306Z,97.20
2023-04-09T00:15:44.999Z,97.20
2023-04-09T00:18:32.416Z,97.40
2023-04-09T00:21:20.773Z,97.30
2023-04-09T00:24:08.613Z,97.30
2023-04-09T00:26:56.311Z,97.30
2023-04-09T00:29:44.978Z,97.30
2023-04-09T00:32:32.503Z,97.40
2023-04-09T00:35:20.095Z,97.20
2023-04-09T00:38:07.949Z,97.30
2023-04-09T00:40:55.759Z,97.40
2023-04-09T00:43:43.131Z,97.50
2023-04-09T00:46:33.379Z,97.50
2023-04-09T00:49:21.041Z,97.80
2023-04-09T00:52:09.486Z,98.00
2023-04-09T00:55:00.556Z,98.10
2023-04-09T00:57:48.580Z,98.20
2023-04-09T01:00:36.048Z,98.40
2023-04-09T01:03:25.007Z,98.40
2023-04-09T01:06:23.722Z,98.40
2023-04-09T01:09:19.821Z,98.60
2023-04-09T01:12:14.764Z,98.70
2023-04-09T01:15:07.664Z,99.00
2023-04-09T01:18:01.697Z,99.20
2023-04-09T01:20:57.656Z,99.50
2023-04-09T01:23:51.928Z,99.50
2023-04-09T01:26:55.782Z,99.80
2023-04-09T01:29:52.732Z,99.80
2023-04-09T01:32:41.937Z,99.80
2023-04-09T01:35:31.182Z,99.50
2023-04-09T01:38:22.065Z,99.50
2023-04-09T01:41:13.704Z,99.80
2023-04-09T01:44:03.368Z,99.70
2023-04-09T01:46:54.490Z,99.70
2023-04-09T01:49:44.555Z,99.40
2023-04-09T01:52:31.816Z,99.30
2023-04-09T01:55:19.255Z,99.60
2023-04-09T01:58:06.560Z,99.60
2023-04-09T02:01:01.829Z,99.70
2023-04-09T02:03:55.966Z,99.60
2023-04-09T02:06:54.346Z,99.70
2023-04-09T02:09:43.486Z,99.60
2023-04-09T02:12:34.969Z,99.80
2023-04-09T02:15:23.985Z,99.80
2023-04-09T02:18:24.324Z,99.90
2023-04-09T02:21:15.193Z,99.90
2023-04-09T02:24:02.919Z,99.90
2023-04-09T02:26:50.462Z,99.90
2023-04-09T02:29:38.171Z,99.90
2023-04-09T02:32:25.956Z,99.90
2023-04-09T02:35:15.713Z,99.90
2023-04-09T02:38:04.671Z,99.90
2023-04-09T02:40:53.043Z,99.90
2023-04-09T02:43:40.938Z,99.80
2023-04-09T02:46:28.507Z,99.90
2023-04-09T02:49:16.676Z,99.90
2023-04-09T02:52:07.376Z,99.90
2023-04-09T02:54:56.078Z,99.90
2023-04-09T02:57:44.043Z,99.70
2023-04-09T03:00:31.863Z,99.70
2023-04-09T03:03:19.620Z,99.90
2023-04-09T03:06:07.609Z,99.90
2023-04-09T03:08:55.069Z,99.90
2023-04-09T03:11:44.841Z,99.90
2023-04-09T03:14:33.325Z,99.90
2023-04-09T03:17:22.384Z,99.90
2023-04-09T03:20:10.290Z,99.90
2023-04-09T03:22:59.590Z,99.90
2023-04-09T03:26:03.110Z,99.90
2023-04-09T03:28:56.477Z,99.90
2023-04-09T03:31:44.470Z,99.90
2023-04-09T03:34:32.761Z,99.90
2023-04-09T03:37:23.305Z,99.90
2023-04-09T03:40:13.621Z,99.90
2023-04-09T03:43:01.611Z,99.90
2023-04-09T03:45:50.981Z,99.90
2023-04-09T03:48:44.832Z,99.90
2023-04-09T03:51:33.259Z,99.90
2023-04-09T03:54:21.673Z,99.90
2023-04-09T03:57:09.276Z,99.90
2023-04-09T04:00:00.082Z,99.90
2023-04-09T04:02:50.236Z,99.90
2023-04-09T04:05:44.149Z,99.90
2023-04-09T04:08:35.349Z,99.90
2023-04-09T04:11:23.082Z,99.90
2023-04-09T04:14:13.940Z,99.90
2023-04-09T04:17:04.329Z,99.90
2023-04-09T04:19:53.565Z,99.90
2023-04-09T04:22:43.050Z,99.90
2023-04-09T04:25:30.952Z,99.90
2023-04-09T04:28:18.922Z,99.90
2023-04-09T04:31:10.063Z,99.90
2023-04-09T04:33:57.688Z,99.90
2023-04-09T04:36:46.668Z,99.90
2023-04-09T04:39:34.957Z,99.90
2023-04-09T04:42:27.594Z,99.90
2023-04-09T04:45:15.488Z,99.90
2023-04-09T04:48:08.230Z,99.90
2023-04-09T04:50:58.034Z,99.90
2023-04-09T04:53:50.354Z,99.90
2023-04-09T04:56:39.227Z,99.90
2023-04-09T04:59:39.053Z,99.90
2023-04-09T05:02:27.896Z,99.90
2023-04-09T05:05:35.329Z,99.90
2023-04-09T05:08:23.137Z,99.90
2023-04-09T05:11:17.188Z,99.90
2023-04-09T05:14:08.147Z,99.90
2023-04-09T05:16:55.754Z,99.90
2023-04-09T05:19:53.300Z,99.90
2023-04-09T05:22:50.731Z,99.90
2023-04-09T05:25:39.114Z,99.90
2023-04-09T05:28:31.769Z,99.90
2023-04-09T05:31:40.691Z,99.90
2023-04-09T05:34:48.205Z,99.90
2023-04-09T05:37:38.763Z,99.90
2023-04-09T05:40:27.146Z,99.90
2023-04-09T05:43:15.730Z,99.90
2023-04-09T05:46:06.169Z,99.90
2023-04-09T05:48:53.928Z,99.90
2023-04-09T05:51:43.405Z,99.90
2023-04-09T05:54:32.361Z,99.90
2023-04-09T05:57:19.988Z,99.90
2023-04-09T06:00:16.017Z,99.90
2023-04-09T06:03:06.412Z,99.90
2023-04-09T06:05:53.946Z,99.90
2023-04-09T06:08:41.381Z,99.90
2023-04-09T06:11:29.143Z,99.90
2023-04-09T06:14:18.348Z,99.90
2023-04-09T06:17:05.721Z,99.90
2023-04-09T06:19:54.572Z,99.90
2023-04-09T06:22:42.146Z,99.90
2023-04-09T06:25:29.771Z,99.90
2023-04-09T06:28:17.476Z,99.90
2023-04-09T06:31:04.841Z,99.90
2023-04-09T06:33:52.752Z,99.90
2023-04-09T06:36:44.270Z,99.90
2023-04-09T06:39:31.896Z,99.90
2023-04-09T06:42:19.575Z,99.90
2023-04-09T06:45:17.876Z,99.90
2023-04-09T06:48:07.213Z,99.90
2023-04-09T06:50:54.790Z,99.90
2023-04-09T06:53:44.405Z,99.90
2023-04-09T06:56:31.982Z,99.80
2023-04-09T06:59:19.942Z,99.60
2023-04-09T07:02:07.628Z,99.60
2023-04-09T07:04:55.711Z,99.20
2023-04-09T07:07:43.601Z,98.80
2023-04-09T07:10:32.817Z,98.50
2023-04-09T07:13:20.859Z,98.50
2023-04-09T07:16:08.602Z,98.40
2023-04-09T07:18:56.146Z,98.10
2023-04-09T07:21:43.622Z,97.80
2023-04-09T07:24:31.514Z,97.10
2023-04-09T07:27:20.567Z,97.00
2023-04-09T07:30:10.964Z,96.70
2023-04-09T07:32:58.761Z,96.60
2023-04-09T07:35:47.087Z,96.30
2023-04-09T07:38:35.058Z,95.90
2023-04-09T07:41:22.646Z,95.50
2023-04-09T07:44:11.840Z,95.00
2023-04-09T07:46:59.373Z,94.20
2023-04-09T07:49:47.324Z,92.80
2023-04-09T07:52:34.986Z,93.10
2023-04-09T07:55:23.001Z,93.30
2023-04-09T07:58:10.525Z,93.30
2023-04-09T08:00:59.744Z,83.40
2023-04-09T08:03:47.346Z,82.70
2023-04-09T08:06:35.156Z,82.00
2023-04-09T08:09:23.225Z,81.20
2023-04-09T08:12:11.417Z,80.10
2023-04-09T08:14:58.886Z,79.60
2023-04-09T08:17:47.794Z,79.40
2023-04-09T08:20:35.683Z,78.80
2023-04-09T08:23:23.013Z,77.30
2023-04-09T08:26:10.824Z,77.20
2023-04-09T08:28:57.975Z,76.30
2023-04-09T08:31:45.052Z,75.70
2023-04-09T08:34:33.756Z,75.50
2023-04-09T08:37:20.670Z,73.10
2023-04-09T08:40:10.152Z,71.10
2023-04-09T08:43:00.393Z,68.90
2023-04-09T08:45:47.875Z,65.80
2023-04-09T08:48:34.976Z,66.60
2023-04-09T08:51:25.805Z,67.50
2023-04-09T08:54:19.028Z,68.30
2023-04-09T08:57:07.814Z,63.90
2023-04-09T08:59:55.426Z,64.40
2023-04-09T09:03:04.093Z,55.10
2023-04-09T09:05:51.637Z,50.70
2023-04-09T09:08:41.276Z,50.90
2023-04-09T09:11:29.389Z,51.90
2023-04-09T09:14:18.657Z,53.10
2023-04-09T09:17:08.772Z,54.80
2023-04-09T09:19:56.976Z,56.70
2023-04-09T09:22:54.969Z,55.80
2023-04-09T09:25:44.775Z,56.50
2023-04-09T09:28:37.957Z,57.00
2023-04-09T09:31:26.470Z,57.70
2023-04-09T09:34:14.496Z,56.00
2023-04-09T09:37:01.568Z,55.00
2023-04-09T09:39:48.677Z,55.70
2023-04-09T09:42:37.029Z,56.80
2023-04-09T09:45:25.025Z,57.30
2023-04-09T09:48:12.925Z,56.70
2023-04-09T09:51:01.466Z,55.90
2023-04-09T09:53:52.615Z,55.80
2023-04-09T09:56:43.258Z,56.10
2023-04-09T09:59:39.843Z,56.30
2023-04-09T10:02:31.539Z,56.90
2023-04-09T10:05:19.206Z,56.90
2023-04-09T10:08:07.256Z,56.30
2023-04-09T10:10:55.074Z,55.80
2023-04-09T10:13:50.369Z,56.00
2023-04-09T10:16:39.403Z,57.50
2023-04-09T10:19:27.229Z,57.70
2023-04-09T10:22:20.836Z,57.30
2023-04-09T10:25:09.607Z,57.10
2023-04-09T10:28:02.397Z,57.10
2023-04-09T10:30:49.431Z,57.10
2023-04-09T10:33:39.150Z,56.90
2023-04-09T10:36:27.937Z,56.30
2023-04-09T10:39:15.211Z,56.20
2023-04-09T10:42:09.124Z,56.70
2023-04-09T10:45:07.770Z,56.50
2023-04-09T10:47:55.264Z,57.30
2023-04-09T10:50:47.528Z,57.70
2023-04-09T10:53:35.068Z,58.10
2023-04-09T10:56:23.224Z,57.70
2023-04-09T10:59:11.758Z,56.80
2023-04-09T11:01:59.822Z,56.50
2023-04-09T11:05:00.877Z,57.20
2023-04-09T11:07:56.381Z,57.60
2023-04-09T11:10:46.504Z,57.80
2023-04-09T11:13:35.567Z,57.50
2023-04-09T11:16:27.238Z,58.10
2023-04-09T11:19:16.603Z,57.30
2023-04-09T11:22:07.254Z,57.50
2023-04-09T11:24:57.136Z,58.40
2023-04-09T11:27:47.505Z,58.60
2023-04-09T11:30:37.906Z,57.40
2023-04-09T11:33:32.797Z,56.90
2023-04-09T11:36:20.186Z,57.30
2023-04-09T11:39:07.022Z,57.20
2023-04-09T11:41:55.576Z,57.20
2023-04-09T11:44:42.867Z,56.70
2023-04-09T11:47:30.157Z,55.80
2023-04-09T11:50:17.535Z,55.90
2023-04-09T11:53:17.911Z,56.80
2023-04-09T11:56:04.818Z,57.50
2023-04-09T11:58:55.991Z,57.80
2023-04-09T12:01:44.299Z,57.70
2023-04-09T12:04:32.193Z,57.30
2023-04-09T12:07:20.125Z,57.10
2023-04-09T12:10:10.456Z,57.00
2023-04-09T12:13:03.838Z,57.40
2023-04-09T12:15:52.844Z,57.90
2023-04-09T12:18:41.391Z,58.50
2023-04-09T12:21:48.289Z,58.50
2023-04-09T12:24:35.952Z,58.60
2023-04-09T12:27:23.507Z,58.80
2023-04-09T12:30:11.965Z,59.60
2023-04-09T12:33:01.593Z,59.50
2023-04-09T12:35:49.029Z,59.60
2023-04-09T12:38:36.096Z,60.30
2023-04-09T12:41:23.188Z,58.80
2023-04-09T12:44:10.572Z,58.60
2023-04-09T12:46:57.727Z,58.50
2023-04-09T12:49:47.044Z,58.70
2023-04-09T12:52:34.772Z,58.70
2023-04-09T12:55:23.427Z,58.40
2023-04-09T12:58:11.280Z,58.70
2023-04-09T13:00:59.442Z,58.30
2023-04-09T13:03:47.503Z,57.80
2023-04-09T13:06:36.858Z,57.00
2023-04-09T13:09:24.504Z,57.00
2023-04-09T13:12:12.820Z,56.80
2023-04-09T13:15:04.147Z,56.70
2023-04-09T13:17:51.738Z,57.00
2023-04-09T13:20:42.350Z,56.20
2023-04-09T13:23:31.713Z,56.30
2023-04-09T13:26:19.337Z,56.60
2023-04-09T13:29:08.608Z,57.30
2023-04-09T13:31:56.181Z,58.60
2023-04-09T13:34:43.749Z,59.40
2023-04-09T13:37:31.016Z,58.90
2023-04-09T13:40:19.651Z,59.30
2023-04-09T13:43:06.592Z,60.20
2023-04-09T13:45:54.274Z,59.80
2023-04-09T13:48:41.328Z,59.50
2023-04-09T13:51:30.064Z,59.30
2023-04-09T13:54:17.286Z,59.60
2023-04-09T13:57:05.881Z,60.30
2023-04-09T13:59:53.124Z,60.20
2023-04-09T14:02:40.478Z,60.70
2023-04-09T14:05:28.807Z,61.10
2023-04-09T14:08:16.913Z,60.90
2023-04-09T14:11:04.877Z,60.80
2023-04-09T14:13:54.593Z,60.40
2023-04-09T14:16:42.418Z,60.20
2023-04-09T14:19:30.267Z,60.50
2023-04-09T14:22:17.694Z,60.10
2023-04-09T14:25:06.156Z,59.50
2023-04-09T14:27:53.888Z,58.90
2023-04-09T14:30:42.156Z,58.60
2023-04-09T14:33:29.111Z,58.90
2023-04-09T14:36:16.679Z,58.30
2023-04-09T14:39:03.938Z,59.20
2023-04-09T14:41:51.282Z,59.40
2023-04-09T14:44:39.085Z,58.80
2023-04-09T14:47:27.247Z,58.20
2023-04-09T14:50:14.727Z,58.00
2023-04-09T14:53:02.162Z,57.10
2023-04-09T14:55:49.439Z,57.00
2023-04-09T14:58:36.500Z,57.20
2023-04-09T15:01:24.097Z,58.30
2023-04-09T15:04:13.321Z,59.10
2023-04-09T15:07:03.285Z,59.40
2023-04-09T15:09:51.132Z,59.50
2023-04-09T15:12:38.862Z,59.70
2023-04-09T15:15:26.691Z,60.20
2023-04-09T15:18:14.311Z,60.10
2023-04-09T15:21:03.230Z,60.60
2023-04-09T15:23:52.529Z,61.40
2023-04-09T15:26:43.554Z,61.50
2023-04-09T15:29:31.088Z,61.30
2023-04-09T15:32:19.361Z,60.50
2023-04-09T15:35:07.404Z,60.10
2023-04-09T15:38:00.085Z,60.50
2023-04-09T15:40:47.919Z,61.30
2023-04-09T15:43:35.744Z,61.30
2023-04-09T15:46:23.144Z,60.90
2023-04-09T15:49:11.737Z,60.50
2023-04-09T15:55:04.751Z,61.40
2023-04-09T15:57:55.317Z,60.30
2023-04-09T16:00:43.020Z,59.60
2023-04-09T16:03:35.789Z,59.50
2023-04-09T16:06:26.916Z,59.40
2023-04-09T16:09:14.846Z,59.70
2023-04-09T16:12:06.708Z,59.90
2023-04-09T16:14:55.510Z,60.40
2023-04-09T16:17:43.107Z,60.90
2023-04-09T16:20:34.183Z,61.00
2023-04-09T16:23:22.323Z,61.60
2023-04-09T16:26:10.975Z,61.70
2023-04-09T16:29:03.397Z,61.80
2023-04-09T16:31:50.316Z,61.30
2023-04-09T16:34:37.129Z,61.00
2023-04-09T16:37:24.458Z,61.10
2023-04-09T16:40:11.698Z,61.00
2023-04-09T16:42:58.831Z,60.60
2023-04-09T16:45:47.589Z,60.60
2023-04-09T16:48:37.532Z,60.60
2023-04-09T16:51:24.723Z,60.30
2023-04-09T16:54:12.203Z,60.20
2023-04-09T16:56:59.783Z,60.40
2023-04-09T16:59:47.486Z,60.60
2023-04-09T17:02:37.066Z,60.50
2023-04-09T17:05:25.149Z,61.00
2023-04-09T17:08:12.772Z,61.20
2023-04-09T17:11:05.909Z,61.30
2023-04-09T17:13:53.466Z,61.40
2023-04-09T17:16:41.380Z,61.80
2023-04-09T17:19:31.841Z,61.80
2023-04-09T17:22:22.485Z,61.20
2023-04-09T17:25:10.299Z,62.40
2023-04-09T17:27:58.093Z,62.40
2023-04-09T17:30:45.550Z,62.50
2023-04-09T17:33:34.888Z,62.70
2023-04-09T17:36:24.699Z,62.90
2023-04-09T17:39:14.968Z,63.40
2023-04-09T17:42:05.031Z,63.60
2023-04-09T17:44:55.253Z,68.50
2023-04-09T17:47:43.058Z,64.30
2023-04-09T17:50:31.173Z,65.10
2023-04-09T17:53:20.498Z,65.40
2023-04-09T17:56:10.034Z,65.70
2023-04-09T17:59:03.605Z,66.10
2023-04-09T18:01:50.973Z,66.20
2023-04-09T18:04:39.002Z,66.00
2023-04-09T18:07:32.709Z,66.90
2023-04-09T18:10:23.878Z,67.10
2023-04-09T18:13:11.409Z,67.50
2023-04-09T18:16:01.158Z,68.20
2023-04-09T18:18:48.956Z,72.40
2023-04-09T18:21:37.248Z,77.60
2023-04-09T18:24:26.707Z,79.80
2023-04-09T18:27:15.378Z,74.30
2023-04-09T18:30:03.170Z,72.50
2023-04-09T18:32:50.262Z,71.40
2023-04-09T18:35:37.584Z,72.00
2023-04-09T18:38:24.974Z,70.90
2023-04-09T18:41:16.780Z,72.90
2023-04-09T18:44:05.412Z,74.10
2023-04-09T18:46:52.907Z,74.80
2023-04-09T18:49:40.176Z,77.20
2023-04-09T18:52:29.591Z,78.90
2023-04-09T18:55:19.602Z,81.70
2023-04-09T18:58:12.945Z,80.90
2023-04-09T19:01:05.476Z,83.20
2023-04-09T19:03:55.213Z,79.90
2023-04-09T19:06:48.399Z,80.00
2023-04-09T19:09:38.798Z,81.60
2023-04-09T19:12:28.182Z,74.50
2023-04-09T19:15:16.280Z,74.60
2023-04-09T19:18:05.450Z,74.80
2023-04-09T19:20:53.207Z,75.30
2023-04-09T19:23:41.643Z,75.50
2023-04-09T19:26:30.151Z,75.70
2023-04-09T19:29:17.661Z,76.70
2023-04-09T19:32:06.198Z,82.40
2023-04-09T19:34:55.265Z,82.00
2023-04-09T19:37:43.245Z,86.70
2023-04-09T19:40:30.655Z,89.50
2023-04-09T19:43:19.473Z,75.30
2023-04-09T19:46:09.585Z,77.00
2023-04-09T19:48:58.294Z,77.70
2023-04-09T19:51:52.522Z,78.00
2023-04-09T19:54:41.129Z,77.70
2023-04-09T19:57:33.324Z,77.10
2023-04-09T20:00:23.772Z,78.20
2023-04-09T20:03:11.560Z,78.40
2023-04-09T20:05:59.869Z,78.90
2023-04-09T20:08:52.691Z,79.10
2023-04-09T20:11:43.847Z,79.40
2023-04-09T20:14:33.009Z,79.60
2023-04-09T20:17:25.848Z,79.70
2023-04-09T20:20:20.607Z,79.80
2023-04-09T20:23:08.359Z,78.80
2023-04-09T20:26:09.748Z,80.30
2023-04-09T20:28:59.620Z,80.50
2023-04-09T20:31:53.407Z,80.70
2023-04-09T20:34:41.315Z,81.10
2023-04-09T20:37:28.939Z,81.10
2023-04-09T20:40:19.484Z,81.30
2023-04-09T20:43:08.691Z,80.30
2023-04-09T20:45:56.738Z,82.60
2023-04-09T20:48:46.969Z,81.90
2023-04-09T20:51:34.486Z,82.20
2023-04-09T20:54:25.076Z,82.40
2023-04-09T20:57:13.987Z,82.70
2023-04-09T21:00:03.158Z,82.70
2023-04-09T21:02:53.829Z,83.00
2023-04-09T21:05:41.814Z,82.10
2023-04-09T21:08:29.469Z,83.50
2023-04-09T21:11:24.078Z,83.50
2023-04-09T21:14:13.901Z,83.90
2023-04-09T21:17:03.090Z,84.00
2023-04-09T21:19:55.624Z,84.20
2023-04-09T21:22:43.297Z,84.40
2023-04-09T21:25:34.237Z,84.50
2023-04-09T21:28:23.700Z,84.70
2023-04-09T21:31:16.102Z,84.80
2023-04-09T21:34:06.985Z,85.10
2023-04-09T21:36:56.972Z,85.30
2023-04-09T21:39:48.823Z,85.30
2023-04-09T21:42:42.480Z,85.40
2023-04-09T21:45:38.095Z,85.60
2023-04-09T21:48:28.368Z,85.60
2023-04-09T21:51:17.614Z,85.60
2023-04-09T21:54:07.223Z,85.80
2023-04-09T21:56:59.931Z,86.00
2023-04-09T21:59:51.733Z,86.20
2023-04-09T22:02:42.423Z,86.20
2023-04-09T22:05:31.771Z,86.30
2023-04-09T22:08:25.760Z,86.60
2023-04-09T22:11:19.506Z,86.70
2023-04-09T22:14:07.191Z,86.90
2023-04-09T22:17:04.225Z,87.00
2023-04-09T22:19:52.694Z,87.00
2023-04-09T22:22:45.177Z,87.20
2023-04-09T22:25:38.245Z,87.30
2023-04-09T22:28:29.665Z,87.60
2023-04-09T22:31:20.272Z,87.50
2023-04-09T22:34:19.941Z,87.60
2023-04-09T22:37:10.624Z,87.90
2023-04-09T22:39:59.448Z,88.00
2023-04-09T22:42:49.701Z,87.40
2023-04-09T22:45:37.935Z,88.30
2023-04-09T22:48:31.124Z,88.30
2023-04-09T22:51:18.677Z,88.40
2023-04-09T22:54:09.757Z,87.80
2023-04-09T22:56:58.494Z,88.60
2023-04-09T22:59:48.559Z,89.60
2023-04-09T23:02:39.196Z,88.80
2023-04-09T23:05:29.820Z,88.80
2023-04-09T23:08:20.589Z,89.00
2023-04-09T23:11:08.143Z,89.10
2023-04-09T23:13:55.684Z,89.20
2023-04-09T23:16:44.701Z,89.30
2023-04-09T23:19:32.893Z,89.40
2023-04-09T23:22:20.802Z,89.70
2023-04-09T23:25:08.580Z,89.90
2023-04-09T23:27:58.371Z,90.00
2023-04-09T23:30:46.639Z,90.10
2023-04-09T23:33:35.873Z,90.10
2023-04-09T23:36:26.930Z,90.20
2023-04-09T23:39:15.249Z,90.30
2023-04-09T23:42:07.855Z,90.30
2023-04-09T23:44:58.744Z,90.30
2023-04-09T23:47:48.902Z,90.30
2023-04-09T23:50:43.603Z,90.40
2023-04-09T23:53:33.932Z,90.40
2023-04-09T23:56:29.660Z,90.40
2023-04-09T23:59:18.271Z,90.50
